createdAt,value
2018-12-08T00:00:38.014Z,99918.50
2018-12-08T00:03:07.040Z,99918.95
2018-12-08T00:05:35.916Z,99916.13
2018-12-08T00:08:04.871Z,99909.29
2018-12-08T00:10:33.773Z,99925.11
2018-12-08T00:13:02.743Z,99908.45
2018-12-08T00:15:32.909Z,99919.31
2018-12-08T00:18:03.434Z,99905.62
2018-12-08T00:20:37.253Z,99907.86
2018-12-08T00:23:06.074Z,99925.96
2018-12-08T00:25:34.988Z,99919.94
2018-12-08T00:28:03.912Z,99912.57
2018-12-08T00:31:09.204Z,99914.28
2018-12-08T00:33:38.151Z,99911.50
2018-12-08T00:36:07.121Z,99918.08
2018-12-08T00:38:35.999Z,99919.97
2018-12-08T00:41:04.973Z,99930.88
2018-12-08T00:43:33.884Z,99916.98
2018-12-08T00:46:02.798Z,99932.84
2018-12-08T00:48:31.689Z,99916.65
2018-12-08T00:51:00.584Z,99920.67
2018-12-08T00:53:29.488Z,99919.89
2018-12-08T00:55:58.464Z,99913.71
2018-12-08T00:58:27.288Z,99917.56
2018-12-08T01:00:56.200Z,99923.77
2018-12-08T01:03:25.079Z,99937.27
2018-12-08T01:05:53.997Z,99931.63
2018-12-08T01:08:22.887Z,99917.77
2018-12-08T01:10:51.810Z,99925.09
2018-12-08T01:13:20.717Z,99921.97
2018-12-08T01:15:49.661Z,99933.07
2018-12-08T01:18:18.741Z,99924.94
2018-12-08T01:20:47.494Z,99919.35
2018-12-08T01:23:16.439Z,99910.14
2018-12-08T01:25:45.350Z,99911.63
2018-12-08T01:28:14.333Z,99919.23
2018-12-08T01:30:43.174Z,99906.83
2018-12-08T01:33:12.102Z,99904.77
2018-12-08T01:35:40.999Z,99917.52
2018-12-08T01:38:10.011Z,99907.02
2018-12-08T01:40:38.806Z,99894.70
2018-12-08T01:43:07.806Z,99907.18
2018-12-08T01:45:36.718Z,99903.50
2018-12-08T01:48:05.660Z,99906.61
2018-12-08T01:50:34.550Z,99891.56
2018-12-08T01:53:03.511Z,99896.95
2018-12-08T01:55:32.365Z,99884.48
2018-12-08T01:58:01.244Z,99893.91
2018-12-08T02:00:30.164Z,99896.05
2018-12-08T02:02:59.070Z,99897.67
2018-12-08T02:05:28.031Z,99900.59
2018-12-08T02:07:56.907Z,99881.86
2018-12-08T02:10:25.828Z,99881.50
2018-12-08T02:12:54.770Z,99887.12
2018-12-08T02:15:23.713Z,99882.22
2018-12-08T02:17:52.759Z,99883.12
2018-12-08T02:20:21.559Z,99874.69
2018-12-08T02:22:50.499Z,99872.21
2018-12-08T02:25:19.427Z,99861.92
2018-12-08T02:27:48.369Z,99857.53
2018-12-08T02:30:17.276Z,99859.55
2018-12-08T02:32:46.199Z,99854.42
2018-12-08T02:35:15.091Z,99860.66
2018-12-08T02:37:44.014Z,99858.33
2018-12-08T02:40:12.932Z,99847.55
2018-12-08T02:42:41.832Z,99832.66
2018-12-08T02:45:10.729Z,99829.61
2018-12-08T02:47:39.671Z,99828.39
2018-12-08T02:50:08.636Z,99821.48
2018-12-08T02:52:37.549Z,99827.77
2018-12-08T02:55:06.524Z,99835.48
2018-12-08T02:57:35.445Z,99825.30
2018-12-08T03:00:04.466Z,99807.42
2018-12-08T03:02:33.365Z,99809.77
2018-12-08T03:05:02.287Z,99810.70
2018-12-08T03:07:31.188Z,99808.05
2018-12-08T03:10:00.115Z,99808.06
2018-12-08T03:12:29.011Z,99802.29
2018-12-08T03:14:57.922Z,99791.84
2018-12-08T03:17:26.789Z,99792.88
2018-12-08T03:19:55.733Z,99787.33
2018-12-08T03:22:24.651Z,99797.63
2018-12-08T03:24:53.716Z,99800.59
2018-12-08T03:27:22.651Z,99802.60
2018-12-08T03:29:51.574Z,99790.97
2018-12-08T03:32:20.471Z,99787.63
2018-12-08T03:34:49.357Z,99786.63
2018-12-08T03:37:18.325Z,99781.54
2018-12-08T03:39:47.210Z,99789.91
2018-12-08T03:42:16.127Z,99785.25
2018-12-08T03:44:44.991Z,99775.50
2018-12-08T03:47:13.905Z,99793.25
2018-12-08T03:49:42.787Z,99780.86
2018-12-08T03:52:11.701Z,99790.50
2018-12-08T03:54:40.613Z,99779.45
2018-12-08T03:57:09.526Z,99767.73
2018-12-08T03:59:38.432Z,99768.94
2018-12-08T04:02:07.364Z,99770.03
2018-12-08T04:04:36.258Z,99767.03
2018-12-08T04:07:05.213Z,99772.48
2018-12-08T04:09:34.103Z,99779.06
2018-12-08T04:12:03.012Z,99762.00
2018-12-08T04:14:31.990Z,99765.22
2018-12-08T04:17:00.850Z,99753.91
2018-12-08T04:19:29.796Z,99765.40
2018-12-08T04:21:58.699Z,99756.18
2018-12-08T04:24:27.636Z,99726.29
2018-12-08T04:26:56.532Z,99748.42
2018-12-08T04:29:25.432Z,99737.67
2018-12-08T04:31:54.343Z,99747.81
2018-12-08T04:34:23.239Z,99737.62
2018-12-08T04:36:52.129Z,99744.41
2018-12-08T04:39:21.036Z,99721.03
2018-12-08T04:41:49.988Z,99742.62
2018-12-08T04:44:18.960Z,99717.42
2018-12-08T04:46:47.953Z,99724.39
2018-12-08T04:49:16.817Z,99722.38
2018-12-08T04:51:45.760Z,99717.39
2018-12-08T04:54:14.727Z,99713.59
2018-12-08T04:56:43.645Z,99711.42
2018-12-08T04:59:12.560Z,99714.37
2018-12-08T05:01:41.488Z,99705.86
2018-12-08T05:04:10.395Z,99706.74
2018-12-08T05:06:39.306Z,99718.70
2018-12-08T05:09:08.356Z,99709.83
2018-12-08T05:11:37.249Z,99690.79
2018-12-08T05:14:06.231Z,99693.23
2018-12-08T05:16:35.074Z,99694.86
2018-12-08T05:19:03.979Z,99689.09
2018-12-08T05:21:32.899Z,99702.10
2018-12-08T05:24:01.828Z,99702.35
2018-12-08T05:26:30.747Z,99678.77
2018-12-08T05:28:59.625Z,99686.13
2018-12-08T05:31:28.535Z,99684.80
2018-12-08T05:33:57.417Z,99676.34
2018-12-08T05:36:26.314Z,99670.84
2018-12-08T05:38:55.191Z,99672.55
2018-12-08T05:41:24.081Z,99672.87
2018-12-08T05:43:52.963Z,99674.86
2018-12-08T05:46:21.858Z,99659.69
2018-12-08T05:48:50.774Z,99666.19
2018-12-08T05:51:19.661Z,99671.64
2018-12-08T05:53:48.564Z,99669.47
2018-12-08T05:56:17.459Z,99662.66
2018-12-08T05:58:46.360Z,99659.78
2018-12-08T06:01:15.233Z,99668.97
2018-12-08T06:03:44.153Z,99644.80
2018-12-08T06:06:13.023Z,99658.63
2018-12-08T06:08:41.911Z,99663.66
2018-12-08T06:11:10.793Z,99654.53
2018-12-08T06:13:39.691Z,99657.13
2018-12-08T06:16:08.623Z,99655.38
2018-12-08T06:18:37.527Z,99664.96
2018-12-08T06:21:06.441Z,99660.63
2018-12-08T06:23:35.320Z,99683.38
2018-12-08T06:26:17.423Z,99667.61
2018-12-08T06:28:48.566Z,99674.22
2018-12-08T06:31:17.480Z,99674.72
2018-12-08T06:33:46.405Z,99671.52
2018-12-08T06:36:15.323Z,99669.12
2018-12-08T06:38:44.207Z,99666.88
2018-12-08T06:41:13.202Z,99668.47
2018-12-08T06:43:42.079Z,99661.38
2018-12-08T06:46:11.012Z,99667.72
2018-12-08T06:48:39.909Z,99671.52
2018-12-08T06:51:08.845Z,99668.08
2018-12-08T06:53:37.711Z,99658.48
2018-12-08T06:56:06.687Z,99660.07
2018-12-08T06:58:35.577Z,99651.19
2018-12-08T07:01:04.473Z,99642.61
2018-12-08T07:03:33.363Z,99664.03
2018-12-08T07:06:02.263Z,99644.19
2018-12-08T07:08:31.223Z,99642.99
2018-12-08T07:11:00.075Z,99637.66
2018-12-08T07:13:28.964Z,99634.73
2018-12-08T07:15:57.890Z,99638.22
2018-12-08T07:18:26.819Z,99645.19
2018-12-08T07:20:55.713Z,99644.63
2018-12-08T07:23:24.619Z,99645.98
2018-12-08T07:25:53.600Z,99646.69
2018-12-08T07:28:22.540Z,99643.26
2018-12-08T07:30:51.425Z,99642.05
2018-12-08T07:33:20.322Z,99636.75
2018-12-08T07:35:49.227Z,99637.31
2018-12-08T07:38:18.136Z,99641.06
2018-12-08T07:40:47.038Z,99643.37
2018-12-08T07:43:15.955Z,99624.12
2018-12-08T07:45:44.849Z,99624.09
2018-12-08T07:48:13.799Z,99620.08
2018-12-08T07:50:42.712Z,99618.66
2018-12-08T07:53:11.605Z,99619.78
2018-12-08T07:55:40.503Z,99621.72
2018-12-08T07:58:09.536Z,99630.69
2018-12-08T08:00:38.425Z,99631.27
2018-12-08T08:03:07.559Z,99624.59
2018-12-08T08:05:36.430Z,99639.91
2018-12-08T08:08:05.481Z,99647.15
2018-12-08T08:10:34.384Z,99635.95
2018-12-08T08:13:03.314Z,99640.00
2018-12-08T08:15:32.193Z,99640.85
2018-12-08T08:18:01.106Z,99638.66
2018-12-08T08:20:29.995Z,99632.62
2018-12-08T08:22:58.889Z,99651.31
2018-12-08T08:25:27.803Z,99629.59
2018-12-08T08:27:56.797Z,99629.56
2018-12-08T08:30:25.699Z,99640.59
2018-12-08T08:32:54.604Z,99635.11
2018-12-08T08:35:23.533Z,99646.19
2018-12-08T08:37:52.388Z,99628.95
2018-12-08T08:40:21.327Z,99625.70
2018-12-08T08:42:50.219Z,99629.30
2018-12-08T08:45:19.127Z,99619.56
2018-12-08T08:47:48.126Z,99635.34
2018-12-08T08:50:16.944Z,99617.61
2018-12-08T08:52:45.835Z,99626.69
2018-12-08T08:55:14.757Z,99619.86
2018-12-08T08:57:43.823Z,99610.56
2018-12-08T09:00:12.779Z,99617.02
2018-12-08T09:02:41.680Z,99636.55
2018-12-08T09:05:10.591Z,99637.19
2018-12-08T09:07:39.527Z,99632.12
2018-12-08T09:10:11.834Z,99640.81
2018-12-08T09:12:40.707Z,99633.61
2018-12-08T09:15:09.898Z,99633.36
2018-12-08T09:17:38.844Z,99633.61
2018-12-08T09:20:10.311Z,99637.34
2018-12-08T09:22:39.518Z,99637.14
2018-12-08T09:25:09.472Z,99631.31
2018-12-08T09:27:38.424Z,99628.89
2018-12-08T09:30:09.826Z,99631.77
2018-12-08T09:32:38.730Z,99650.52
2018-12-08T09:35:07.683Z,99648.20
2018-12-08T09:37:36.632Z,99645.70
2018-12-08T09:40:06.925Z,99649.02
2018-12-08T09:42:35.857Z,99653.97
2018-12-08T09:45:04.852Z,99656.97
2018-12-08T09:47:33.699Z,99661.02
2018-12-08T09:50:02.714Z,99662.88
2018-12-08T09:52:31.645Z,99656.67
2018-12-08T09:55:00.504Z,99665.80
2018-12-08T09:57:29.390Z,99663.69
2018-12-08T09:59:58.285Z,99659.69
2018-12-08T10:02:27.196Z,99666.14
2018-12-08T10:04:56.108Z,99661.75
2018-12-08T10:07:25.035Z,99659.78
2018-12-08T10:09:53.955Z,99663.50
2018-12-08T10:12:22.873Z,99665.58
2018-12-08T10:14:51.756Z,99663.05
2018-12-08T10:17:20.664Z,99661.28
2018-12-08T10:19:49.573Z,99665.83
2018-12-08T10:22:18.479Z,99668.69
2018-12-08T10:24:47.393Z,99666.33
2018-12-08T10:27:16.529Z,99672.44
2018-12-08T10:29:45.381Z,99659.92
2018-12-08T10:32:14.257Z,99668.42
2018-12-08T10:34:43.180Z,99658.27
2018-12-08T10:37:12.069Z,99659.85
2018-12-08T10:39:40.961Z,99655.98
2018-12-08T10:42:09.969Z,99671.16
2018-12-08T10:44:38.878Z,99669.12
2018-12-08T10:47:07.976Z,99662.31
2018-12-08T10:49:36.888Z,99665.10
2018-12-08T10:52:06.015Z,99671.70
2018-12-08T10:54:34.882Z,99667.30
2018-12-08T10:57:03.884Z,99649.07
2018-12-08T10:59:32.780Z,99670.39
2018-12-08T11:02:04.488Z,99671.23
2018-12-08T11:04:33.349Z,99656.72
2018-12-08T11:07:02.306Z,99659.58
2018-12-08T11:09:31.181Z,99662.50
2018-12-08T11:12:00.111Z,99662.66
2018-12-08T11:14:28.994Z,99658.76
2018-12-08T11:16:57.917Z,99675.52
2018-12-08T11:19:26.820Z,99683.67
2018-12-08T11:21:55.702Z,99668.29
2018-12-08T11:24:27.241Z,99669.98
2018-12-08T11:26:56.501Z,99673.35
2018-12-08T11:29:24.760Z,99678.95
2018-12-08T11:31:54.237Z,99678.03
2018-12-08T11:34:30.370Z,99677.06
2018-12-08T11:37:02.067Z,99674.88
2018-12-08T11:39:32.148Z,99676.48
2018-12-08T11:42:07.417Z,99678.21
2018-12-08T11:44:39.531Z,99689.67
2018-12-08T11:47:16.649Z,99681.20
2018-12-08T11:49:46.232Z,99667.36
2018-12-08T11:52:15.746Z,99689.52
2018-12-08T11:54:46.775Z,99679.35
2018-12-08T11:57:18.060Z,99684.23
2018-12-08T11:59:48.267Z,99682.53
2018-12-08T12:02:17.805Z,99674.08
2018-12-08T12:04:50.076Z,99688.39
2018-12-08T12:07:19.483Z,99689.23
2018-12-08T12:09:52.583Z,99689.92
2018-12-08T12:12:22.464Z,99685.77
2018-12-08T12:14:52.351Z,99673.98
2018-12-08T12:17:21.699Z,99674.48
2018-12-08T12:19:53.828Z,99680.86
2018-12-08T12:22:35.003Z,99675.11
2018-12-08T12:25:05.901Z,99681.83
2018-12-08T12:27:39.797Z,99680.02
2018-12-08T12:30:09.500Z,99687.46
2018-12-08T12:32:40.652Z,99697.09
2018-12-08T12:35:14.216Z,99689.55
2018-12-08T12:37:48.275Z,99668.19
2018-12-08T12:40:40.295Z,99683.79
2018-12-08T12:43:13.328Z,99694.14
2018-12-08T12:45:42.960Z,99688.58
2018-12-08T12:48:12.432Z,99692.66
2018-12-08T12:50:41.914Z,99687.22
2018-12-08T12:53:23.551Z,99689.05
2018-12-08T12:55:55.811Z,99695.87
2018-12-08T12:58:25.386Z,99697.92
2018-12-08T13:01:10.910Z,99696.22
2018-12-08T13:03:43.162Z,99689.64
2018-12-08T13:06:13.767Z,99698.23
2018-12-08T13:08:44.055Z,99681.02
2018-12-08T13:11:14.525Z,99687.28
2018-12-08T13:13:43.885Z,99687.44
2018-12-08T13:16:13.794Z,99693.20
2018-12-08T13:18:48.180Z,99687.63
2018-12-08T13:21:17.979Z,99687.28
2018-12-08T13:23:49.382Z,99686.59
2018-12-08T13:26:19.069Z,99699.61
2018-12-08T13:28:49.741Z,99713.48
2018-12-08T13:31:21.223Z,99688.16
2018-12-08T13:33:54.558Z,99691.71
2018-12-08T13:36:26.770Z,99687.17
2018-12-08T13:38:56.345Z,99688.05
2018-12-08T13:41:26.195Z,99682.93
2018-12-08T13:43:56.207Z,99685.42
2018-12-08T13:46:27.359Z,99681.27
2018-12-08T13:48:56.590Z,99701.72
2018-12-08T13:51:29.123Z,99686.04
2018-12-08T13:53:58.732Z,99689.12
2018-12-08T13:56:30.248Z,99689.91
2018-12-08T13:58:58.209Z,99685.16
2018-12-08T14:01:35.820Z,99681.77
2018-12-08T14:04:08.035Z,99678.58
2018-12-08T14:06:37.739Z,99678.37
2018-12-08T14:09:07.621Z,99667.02
2018-12-08T14:11:39.794Z,99672.11
2018-12-08T14:14:09.503Z,99668.42
2018-12-08T14:16:39.316Z,99671.60
2018-12-08T14:19:09.783Z,99660.97
2018-12-08T14:21:42.262Z,99676.14
2018-12-08T14:24:17.387Z,99670.44
2018-12-08T14:26:46.901Z,99670.99
2018-12-08T14:29:16.341Z,99677.05
2018-12-08T14:31:45.875Z,99673.28
2018-12-08T14:34:16.350Z,99671.09
2018-12-08T14:36:45.773Z,99665.67
2018-12-08T14:39:15.705Z,99663.99
2018-12-08T14:41:46.692Z,99661.62
2018-12-08T14:44:15.101Z,99664.31
2018-12-08T14:47:03.501Z,99679.38
2018-12-08T14:49:35.131Z,99665.87
2018-12-08T14:52:07.978Z,99667.41
2018-12-08T14:54:40.247Z,99666.03
2018-12-08T14:57:17.545Z,99673.94
2018-12-08T14:59:45.464Z,99662.41
2018-12-08T15:02:15.748Z,99694.20
2018-12-08T15:04:45.537Z,99668.03
2018-12-08T15:07:14.987Z,99666.17
2018-12-08T15:09:44.633Z,99674.44
2018-12-08T15:12:17.877Z,99669.19
2018-12-08T15:14:51.367Z,99664.91
2018-12-08T15:17:21.078Z,99664.06
2018-12-08T15:19:52.820Z,99661.34
2018-12-08T15:22:22.526Z,99653.54
2018-12-08T15:24:52.180Z,99634.28
2018-12-08T15:27:23.876Z,99638.66
2018-12-08T15:29:56.671Z,99639.48
2018-12-08T15:32:26.349Z,99642.84
2018-12-08T15:34:58.009Z,99634.23
2018-12-08T15:37:30.489Z,99627.09
2018-12-08T15:40:00.028Z,99632.50
2018-12-08T15:42:32.264Z,99612.56
2018-12-08T15:45:01.720Z,99611.98
2018-12-08T15:47:35.970Z,99614.84
2018-12-08T15:50:07.904Z,99613.48
2018-12-08T15:52:50.737Z,99607.22
2018-12-08T15:55:24.584Z,99595.70
2018-12-08T15:57:54.214Z,99606.05
2018-12-08T16:00:23.981Z,99596.87
2018-12-08T16:02:53.873Z,99595.20
2018-12-08T16:05:25.886Z,99580.67
2018-12-08T16:08:08.363Z,99577.93
2018-12-08T16:10:36.177Z,99579.75
2018-12-08T16:13:11.566Z,99565.47
2018-12-08T16:15:43.626Z,99568.02
2018-12-08T16:18:16.197Z,99561.17
2018-12-08T16:20:50.425Z,99561.89
2018-12-08T16:23:20.253Z,99552.39
2018-12-08T16:25:51.552Z,99535.47
2018-12-08T16:28:19.271Z,99526.68
2018-12-08T16:30:51.075Z,99525.34
2018-12-08T16:33:18.779Z,99508.75
2018-12-08T16:35:48.450Z,99517.77
2018-12-08T16:38:17.674Z,99499.80
2018-12-08T16:40:50.209Z,99497.62
2018-12-08T16:43:24.560Z,99486.63
2018-12-08T16:45:56.629Z,99480.70
2018-12-08T16:48:26.032Z,99481.54
2018-12-08T16:51:01.234Z,99458.88
2018-12-08T16:53:36.489Z,99445.52
2018-12-08T16:56:12.998Z,99445.18
2018-12-08T16:58:42.724Z,99430.78
2018-12-08T17:01:16.316Z,99444.16
2018-12-08T17:03:44.017Z,99436.05
2018-12-08T17:06:18.408Z,99418.30
2018-12-08T17:08:50.182Z,99389.72
2018-12-08T17:11:22.393Z,99398.66
2018-12-08T17:13:51.988Z,99374.52
2018-12-08T17:16:21.472Z,99381.41
2018-12-08T17:18:51.072Z,99375.34
2018-12-08T17:21:23.509Z,99360.97
2018-12-08T17:23:52.921Z,99348.03
2018-12-08T17:26:22.373Z,99341.97
2018-12-08T17:28:58.081Z,99350.26
2018-12-08T17:31:45.408Z,99341.46
2018-12-08T17:34:15.830Z,99329.28
2018-12-08T17:36:45.380Z,99327.28
2018-12-08T17:39:17.428Z,99318.00
2018-12-08T17:41:49.844Z,99309.05
2018-12-08T17:44:21.611Z,99324.76
2018-12-08T17:46:51.215Z,99322.22
2018-12-08T17:49:23.558Z,99328.69
2018-12-08T17:51:52.838Z,99317.54
2018-12-08T17:54:22.360Z,99310.10
2018-12-08T17:56:53.563Z,99296.77
2018-12-08T17:59:21.435Z,99302.00
2018-12-08T18:01:54.652Z,99285.28
2018-12-08T18:04:24.190Z,99269.58
2018-12-08T18:06:53.712Z,99249.48
2018-12-08T18:09:26.017Z,99252.36
2018-12-08T18:11:57.842Z,99254.38
2018-12-08T18:14:27.268Z,99269.40
2018-12-08T18:16:56.693Z,99253.05
2018-12-08T18:19:25.908Z,99230.40
2018-12-08T18:21:55.747Z,99226.52
2018-12-08T18:24:24.961Z,99200.16
2018-12-08T18:27:00.531Z,99190.22
2018-12-08T18:29:30.755Z,99174.17
2018-12-08T18:32:00.005Z,99164.89
2018-12-08T18:34:29.675Z,99158.97
2018-12-08T18:36:59.641Z,99150.35
2018-12-08T18:39:29.202Z,99151.38
2018-12-08T18:42:00.859Z,99138.97
2018-12-08T18:44:31.137Z,99117.40
2018-12-08T18:47:00.556Z,99120.95
2018-12-08T18:49:29.815Z,99104.88
2018-12-08T18:52:01.989Z,99087.51
2018-12-08T18:54:33.859Z,99084.56
2018-12-08T18:57:08.551Z,99076.87
2018-12-08T18:59:39.904Z,99077.67
2018-12-08T19:02:06.963Z,99061.97
2018-12-08T19:04:36.088Z,99045.28
2018-12-08T19:07:07.614Z,99058.25
2018-12-08T19:09:37.218Z,99051.16
2018-12-08T19:12:06.914Z,99031.69
2018-12-08T19:14:36.488Z,99032.53
2018-12-08T19:17:06.198Z,99011.20
2018-12-08T19:19:39.044Z,99019.13
2018-12-08T19:22:08.832Z,99000.55
2018-12-08T19:24:38.271Z,99002.45
2018-12-08T19:27:07.972Z,98971.36
2018-12-08T19:29:40.219Z,98978.12
2018-12-08T19:32:09.531Z,98984.67
2018-12-08T19:34:45.180Z,98952.90
2018-12-08T19:37:19.899Z,98942.73
2018-12-08T19:39:51.798Z,98953.73
2018-12-08T19:42:25.593Z,98941.18
2018-12-08T19:44:59.313Z,98936.09
2018-12-08T19:47:30.191Z,98935.45
2018-12-08T19:50:03.388Z,98941.96
2018-12-08T19:52:34.652Z,98937.47
2018-12-08T19:55:02.215Z,98936.85
2018-12-08T19:57:33.618Z,98924.52
2018-12-08T20:00:07.577Z,98927.48
2018-12-08T20:02:37.157Z,98910.64
2018-12-08T20:05:09.840Z,98911.44
2018-12-08T20:07:39.403Z,98898.32
2018-12-08T20:10:08.838Z,98905.92
2018-12-08T20:12:38.105Z,98897.13
2018-12-08T20:15:10.688Z,98894.76
2018-12-08T20:17:43.690Z,98881.91
2018-12-08T20:20:15.998Z,98878.13
2018-12-08T20:22:45.411Z,98877.69
2018-12-08T20:25:15.194Z,98853.78
2018-12-08T20:27:48.741Z,98851.58
2018-12-08T20:30:19.489Z,98847.09
2018-12-08T20:32:52.093Z,98842.22
2018-12-08T20:35:23.782Z,98829.72
2018-12-08T20:37:55.182Z,98845.59
2018-12-08T20:40:24.845Z,98815.98
2018-12-08T20:42:57.175Z,98815.35
2018-12-08T20:45:29.474Z,98808.65
2018-12-08T20:48:01.068Z,98813.64
2018-12-08T20:50:33.559Z,98805.80
2018-12-08T20:53:09.059Z,98793.88
2018-12-08T20:55:40.357Z,98791.50
2018-12-08T20:58:10.176Z,98799.91
2018-12-08T21:00:42.453Z,98803.97
2018-12-08T21:03:14.482Z,98795.53
2018-12-08T21:05:47.194Z,98800.36
2018-12-08T21:08:22.459Z,98790.30
2018-12-08T21:10:54.862Z,98786.12
2018-12-08T21:13:26.382Z,98785.40
2018-12-08T21:15:57.910Z,98782.33
2018-12-08T21:18:28.123Z,98795.42
2018-12-08T21:21:00.348Z,98779.52
2018-12-08T21:23:37.097Z,98770.16
2018-12-08T21:26:10.088Z,98765.58
2018-12-08T21:28:39.817Z,98773.84
2018-12-08T21:31:11.978Z,98751.86
2018-12-08T21:33:44.238Z,98760.97
2018-12-08T21:36:13.703Z,98739.48
2018-12-08T21:38:49.807Z,98743.87
2018-12-08T21:41:19.046Z,98731.04
2018-12-08T21:43:48.956Z,98732.44
2018-12-08T21:46:17.999Z,98748.70
2018-12-08T21:48:46.946Z,98758.48
2018-12-08T21:51:15.779Z,98742.52
2018-12-08T21:53:44.736Z,98747.09
2018-12-08T21:56:13.633Z,98759.09
2018-12-08T21:58:42.592Z,98756.69
2018-12-08T22:01:11.518Z,98789.61
2018-12-08T22:03:40.400Z,98794.33
2018-12-08T22:06:09.411Z,98803.22
2018-12-08T22:08:38.311Z,98827.89
2018-12-08T22:11:07.330Z,98809.41
2018-12-08T22:13:36.208Z,98818.55
2018-12-08T22:16:05.076Z,98824.72
2018-12-08T22:18:33.979Z,98813.14
2018-12-08T22:21:02.884Z,98823.65
2018-12-08T22:23:31.758Z,98835.08
2018-12-08T22:26:00.665Z,98839.30
2018-12-08T22:28:29.564Z,98830.10
2018-12-08T22:30:58.460Z,98823.90
2018-12-08T22:33:27.384Z,98829.16
2018-12-08T22:35:56.289Z,98815.98
2018-12-08T22:38:25.172Z,98822.27
2018-12-08T22:40:54.128Z,98808.59
2018-12-08T22:43:22.992Z,98811.41
2018-12-08T22:45:52.042Z,98805.57
2018-12-08T22:48:20.956Z,98795.45
2018-12-08T22:50:49.838Z,98807.28
2018-12-08T22:53:18.741Z,98802.86
2018-12-08T22:55:53.203Z,98809.73
2018-12-08T22:58:22.140Z,98813.66
2018-12-08T23:00:52.599Z,98798.94
2018-12-08T23:03:21.487Z,98801.69
2018-12-08T23:05:50.424Z,98796.28
2018-12-08T23:08:19.325Z,98795.84
2018-12-08T23:10:48.209Z,98789.20
2018-12-08T23:13:17.089Z,98791.22
2018-12-08T23:15:45.992Z,98801.97
2018-12-08T23:18:14.875Z,98819.19
2018-12-08T23:20:43.760Z,98819.57
2018-12-08T23:23:12.614Z,98845.86
2018-12-08T23:25:41.524Z,98819.47
2018-12-08T23:28:10.395Z,98803.82
2018-12-08T23:30:39.314Z,98800.89
2018-12-08T23:33:08.408Z,98797.35
2018-12-08T23:35:37.306Z,98796.15
2018-12-08T23:38:06.310Z,98824.35
2018-12-08T23:40:35.163Z,98818.27
2018-12-08T23:43:04.116Z,98808.64
2018-12-08T23:45:32.988Z,98828.67
2018-12-08T23:48:01.905Z,98832.74
2018-12-08T23:50:30.823Z,98813.39
2018-12-08T23:52:59.699Z,98826.53
2018-12-08T23:55:28.716Z,98830.70
2018-12-08T23:57:57.638Z,98827.67
